Armona, California
Current Conditions -  °F | °C
As of 5:20 PM on Saturday 25 Oct 2014 (Local Time) from KHJO Reporting Station
Haze Haze  
Wind Chill: 70°   Ceiling: Unl
Heat Index: 70°   Visibility: 2mi
Dew Point: 53°   Wind: 20mph
Humidity: 55%   Direction: 330°NNW
Pressure: 30.02"   Gusts: 30mph
Location:  36.32°N, 119.71°W
Report Text: KHJO 260020Z AUTO 33017G26KT 2SM HZ CLR 21/12 A3002 RMK AO2 PK WND 34026/0014 T02110117
Loading
Personal Weather Stations






























Interactive Weather Map
Tropical Storm Tracking
New forecast layout! Learn more

10-Day Weather Forecast

Advertisements
Track Severe Weather on mobile